createdAt,value
2018-03-12T00:02:07.332Z,19.53
2018-03-12T00:04:33.647Z,16.23
2018-03-12T00:06:59.968Z,16.60
2018-03-12T00:09:26.299Z,23.43
2018-03-12T00:11:52.628Z,16.43
2018-03-12T00:14:19.704Z,15.73
2018-03-12T00:16:46.754Z,17.90
2018-03-12T00:19:13.846Z,20.47
2018-03-12T00:21:40.236Z,25.17
2018-03-12T00:24:06.571Z,20.10
2018-03-12T00:26:34.376Z,19.13
2018-03-12T00:29:01.448Z,25.70
2018-03-12T00:31:27.774Z,18.13
2018-03-12T00:33:54.178Z,18.47
2018-03-12T00:36:20.553Z,15.37
2018-03-12T00:38:46.948Z,18.50
2018-03-12T00:41:13.280Z,20.83
2018-03-12T00:43:39.648Z,21.13
2018-03-12T00:46:05.979Z,20.47
2018-03-12T00:48:32.336Z,22.00
2018-03-12T00:50:58.663Z,20.27
2018-03-12T00:53:25.046Z,21.60
2018-03-12T00:55:52.126Z,19.27
2018-03-12T00:58:19.236Z,23.90
2018-03-12T01:00:45.630Z,27.40
2018-03-12T01:03:12.688Z,25.97
2018-03-12T01:05:39.073Z,21.77
2018-03-12T01:08:05.391Z,25.87
2018-03-12T01:10:31.783Z,23.37
2018-03-12T01:12:58.107Z,24.70
2018-03-12T01:15:25.236Z,28.00
2018-03-12T01:17:51.564Z,30.93
2018-03-12T01:20:18.641Z,17.30
2018-03-12T01:22:44.983Z,24.30
2018-03-12T01:25:12.064Z,27.27
2018-03-12T01:27:38.410Z,20.57
2018-03-12T01:30:05.579Z,25.07
2018-03-12T01:32:31.922Z,22.40
2018-03-12T01:34:58.280Z,23.87
2018-03-12T01:37:26.107Z,22.50
2018-03-12T01:39:52.472Z,20.37
2018-03-12T01:42:18.856Z,20.10
2018-03-12T01:44:45.203Z,22.50
2018-03-12T01:47:12.318Z,19.83
2018-03-12T01:49:38.692Z,15.27
2018-03-12T01:52:05.811Z,17.70
2018-03-12T01:54:32.204Z,25.43
2018-03-12T01:56:58.536Z,16.13
2018-03-12T01:59:26.419Z,17.47
2018-03-12T02:01:52.768Z,16.93
2018-03-12T02:04:19.908Z,16.10
2018-03-12T02:06:47.783Z,13.73
2018-03-12T02:09:14.120Z,13.27
2018-03-12T02:11:40.459Z,18.33
2018-03-12T02:14:06.812Z,12.67
2018-03-12T02:16:33.160Z,12.00
2018-03-12T02:18:59.515Z,14.03
2018-03-12T02:21:25.864Z,17.00
2018-03-12T02:23:52.196Z,18.23
2018-03-12T02:26:18.559Z,14.67
2018-03-12T02:28:44.904Z,18.30
2018-03-12T02:31:11.290Z,15.87
2018-03-12T02:33:37.660Z,13.47
2018-03-12T02:36:04.083Z,15.87
2018-03-12T02:38:30.468Z,15.07
2018-03-12T02:40:58.313Z,15.07
2018-03-12T02:43:24.639Z,16.10
2018-03-12T02:45:50.996Z,14.70
2018-03-12T02:48:17.409Z,15.60
2018-03-12T02:50:50.901Z,14.03
2018-03-12T02:53:17.976Z,17.10
2018-03-12T02:55:45.186Z,15.23
2018-03-12T02:58:11.532Z,21.40
2018-03-12T03:00:37.892Z,17.33
2018-03-12T03:03:04.233Z,13.10
2018-03-12T03:05:30.616Z,13.63
2018-03-12T03:07:57.709Z,14.80
2018-03-12T03:10:24.108Z,13.40
2018-03-12T03:12:51.187Z,11.67
2018-03-12T03:15:17.652Z,12.23
2018-03-12T03:17:44.002Z,18.60
2018-03-12T03:20:10.420Z,12.27
2018-03-12T03:22:36.883Z,18.30
2018-03-12T03:25:03.743Z,12.50
2018-03-12T03:27:30.127Z,16.77
2018-03-12T03:29:57.935Z,12.00
2018-03-12T03:32:24.304Z,14.77
2018-03-12T03:34:50.644Z,12.97
2018-03-12T03:37:16.995Z,16.40
2018-03-12T03:39:43.329Z,14.60
2018-03-12T03:42:09.729Z,11.67
2018-03-12T03:44:36.103Z,13.30
2018-03-12T03:47:02.521Z,13.57
2018-03-12T03:49:28.895Z,14.23
2018-03-12T03:51:55.256Z,13.90
2018-03-12T03:54:21.615Z,14.07
2018-03-12T03:56:48.752Z,17.17
2018-03-12T03:59:15.084Z,16.67
2018-03-12T04:01:41.441Z,17.20
2018-03-12T04:04:07.787Z,16.73
2018-03-12T04:06:34.232Z,15.47
2018-03-12T04:09:00.592Z,13.20
2018-03-12T04:11:26.956Z,15.03
2018-03-12T04:13:54.024Z,16.00
2018-03-12T04:16:20.388Z,19.10
2018-03-12T04:18:47.452Z,16.00
2018-03-12T04:21:13.844Z,13.43
2018-03-12T04:23:40.970Z,14.93
2018-03-12T04:26:07.332Z,17.03
2018-03-12T04:28:33.731Z,13.57
2018-03-12T04:31:00.113Z,12.50
2018-03-12T04:33:26.512Z,12.53
2018-03-12T04:35:53.593Z,13.60
2018-03-12T04:38:19.957Z,14.80
2018-03-12T04:40:46.288Z,13.67
2018-03-12T04:43:12.644Z,13.00
2018-03-12T04:45:39.021Z,15.00
2018-03-12T04:48:05.386Z,12.90
2018-03-12T04:50:31.788Z,10.43
2018-03-12T04:52:58.244Z,11.10
2018-03-12T04:55:24.572Z,11.00
2018-03-12T04:57:50.915Z,10.27
2018-03-12T05:00:17.271Z,12.60
2018-03-12T05:02:43.640Z,12.40
2018-03-12T05:05:10.729Z,15.33
2018-03-12T05:07:37.100Z,10.33
2018-03-12T05:10:03.841Z,11.03
2018-03-12T05:12:30.241Z,11.00
2018-03-12T05:14:56.612Z,10.33
2018-03-12T05:17:23.007Z,11.77
2018-03-12T05:19:49.404Z,10.77
2018-03-12T05:22:15.797Z,9.10
2018-03-12T05:24:42.172Z,10.03
2018-03-12T05:27:08.539Z,11.23
2018-03-12T05:29:34.904Z,9.67
2018-03-12T05:32:01.385Z,13.43
2018-03-12T05:34:27.849Z,10.90
2018-03-12T05:36:54.292Z,13.87
2018-03-12T05:39:20.727Z,10.63
2018-03-12T05:41:47.289Z,10.87
2018-03-12T05:44:13.864Z,9.07
2018-03-12T05:46:40.303Z,10.37
2018-03-12T05:49:06.716Z,10.33
2018-03-12T05:51:33.175Z,9.03
2018-03-12T05:54:00.510Z,9.90
2018-03-12T05:56:26.928Z,11.07
2018-03-12T05:58:53.371Z,9.93
2018-03-12T06:01:19.803Z,8.80
2018-03-12T06:03:46.318Z,13.30
2018-03-12T06:06:13.504Z,10.43
2018-03-12T06:08:39.892Z,10.63
2018-03-12T06:11:06.299Z,13.70
2018-03-12T06:13:33.436Z,12.83
2018-03-12T06:15:59.854Z,9.07
2018-03-12T06:18:26.263Z,9.70
2018-03-12T06:20:52.707Z,17.23
2018-03-12T06:23:19.168Z,9.50
2018-03-12T06:25:45.597Z,12.03
2018-03-12T06:28:11.976Z,14.60
2018-03-12T06:30:38.396Z,13.57
2018-03-12T06:33:06.466Z,11.70
2018-03-12T06:35:32.927Z,11.50
2018-03-12T06:37:59.324Z,9.10
2018-03-12T06:40:26.444Z,9.43
2018-03-12T06:42:52.948Z,12.60
2018-03-12T06:45:20.064Z,11.43
2018-03-12T06:47:46.602Z,10.73
2018-03-12T06:50:13.026Z,9.50
2018-03-12T06:52:39.385Z,11.57
2018-03-12T06:55:05.820Z,12.50
2018-03-12T06:57:32.220Z,13.70
2018-03-12T06:59:58.600Z,10.53
2018-03-12T07:02:24.957Z,10.03
2018-03-12T07:04:51.356Z,11.57
2018-03-12T07:07:17.728Z,8.93
2018-03-12T07:09:44.111Z,8.90
2018-03-12T07:12:10.488Z,10.30
2018-03-12T07:14:36.952Z,10.13
2018-03-12T07:17:03.386Z,10.53
2018-03-12T07:19:29.825Z,9.17
2018-03-12T07:21:57.851Z,10.83
2018-03-12T07:24:24.218Z,12.03
2018-03-12T07:26:50.573Z,8.20
2018-03-12T07:29:17.727Z,15.03
2018-03-12T07:31:44.177Z,8.70
2018-03-12T07:34:10.580Z,8.20
2018-03-12T07:36:36.972Z,16.80
2018-03-12T07:39:03.386Z,10.90
2018-03-12T07:41:36.788Z,13.23
2018-03-12T07:44:03.205Z,15.07
2018-03-12T07:46:29.580Z,10.10
2018-03-12T07:48:56.684Z,11.47
2018-03-12T07:51:23.057Z,8.93
2018-03-12T07:53:49.497Z,10.70
2018-03-12T07:56:15.939Z,11.53
2018-03-12T07:58:42.352Z,8.83
2018-03-12T08:01:08.756Z,9.40
2018-03-12T08:03:35.119Z,8.30
2018-03-12T08:06:01.534Z,8.93
2018-03-12T08:08:27.960Z,7.50
2018-03-12T08:10:55.196Z,6.37
2018-03-12T08:13:21.576Z,8.00
2018-03-12T08:15:48.720Z,17.27
2018-03-12T08:18:15.176Z,9.37
2018-03-12T08:20:43.138Z,8.03
2018-03-12T08:23:09.518Z,6.47
2018-03-12T08:25:36.659Z,8.30
2018-03-12T08:28:03.129Z,7.00
2018-03-12T08:30:29.555Z,8.87
2018-03-12T08:32:55.958Z,7.87
2018-03-12T08:35:23.065Z,10.73
2018-03-12T08:37:49.423Z,8.70
2018-03-12T08:40:15.851Z,7.03
2018-03-12T08:42:42.236Z,7.13
2018-03-12T08:45:09.414Z,15.80
2018-03-12T08:47:36.536Z,7.67
2018-03-12T08:50:03.318Z,6.83
2018-03-12T08:52:29.744Z,8.23
2018-03-12T08:54:56.916Z,10.40
2018-03-12T08:57:23.281Z,7.10
2018-03-12T08:59:50.448Z,7.87
2018-03-12T09:02:16.853Z,8.63
2018-03-12T09:04:43.327Z,7.97
2018-03-12T09:07:09.674Z,7.83
2018-03-12T09:09:43.231Z,17.80
2018-03-12T09:12:09.584Z,6.67
2018-03-12T09:14:36.776Z,7.47
2018-03-12T09:17:03.176Z,9.50
2018-03-12T09:19:29.521Z,8.13
2018-03-12T09:21:55.888Z,6.50
2018-03-12T09:24:22.300Z,6.97
2018-03-12T09:26:48.712Z,6.17
2018-03-12T09:29:15.140Z,6.53
2018-03-12T09:31:41.600Z,6.10
2018-03-12T09:34:08.696Z,6.50
2018-03-12T09:36:35.231Z,6.40
2018-03-12T09:39:01.693Z,4.87
2018-03-12T09:41:28.246Z,5.50
2018-03-12T09:43:54.645Z,4.80
2018-03-12T09:46:21.085Z,6.43
2018-03-12T09:48:47.448Z,7.27
2018-03-12T09:51:14.620Z,3.80
2018-03-12T09:53:42.075Z,11.33
2018-03-12T09:56:09.635Z,4.73
2018-03-12T09:58:36.190Z,4.40
2018-03-12T10:01:02.631Z,7.30
2018-03-12T10:03:28.988Z,4.60
2018-03-12T10:05:55.444Z,6.50
2018-03-12T10:08:21.837Z,3.93
2018-03-12T10:10:48.255Z,4.93
2018-03-12T10:13:14.656Z,7.67
2018-03-12T10:15:41.128Z,4.60
2018-03-12T10:18:08.247Z,4.63
2018-03-12T10:20:34.632Z,7.20
2018-03-12T10:23:01.035Z,5.73
2018-03-12T10:25:27.501Z,4.97
2018-03-12T10:27:53.952Z,4.47
2018-03-12T10:30:20.481Z,5.70
2018-03-12T10:32:46.924Z,5.20
2018-03-12T10:35:13.341Z,4.93
2018-03-12T10:37:39.792Z,5.50
2018-03-12T10:40:06.244Z,8.90
2018-03-12T10:42:34.216Z,7.77
2018-03-12T10:45:00.682Z,6.17
2018-03-12T10:47:27.166Z,4.37
2018-03-12T10:49:54.344Z,4.47
2018-03-12T10:52:20.796Z,7.00
2018-03-12T10:54:47.312Z,5.17
2018-03-12T10:57:13.866Z,9.63
2018-03-12T10:59:40.282Z,9.03
2018-03-12T11:02:06.703Z,6.00
2018-03-12T11:04:34.864Z,5.30
2018-03-12T11:07:07.520Z,4.57
2018-03-12T11:09:34.005Z,4.33
2018-03-12T11:12:00.473Z,6.60
2018-03-12T11:14:26.857Z,2.20
2018-03-12T11:16:54.020Z,4.27
2018-03-12T11:19:20.432Z,3.90
2018-03-12T11:21:46.888Z,4.53
2018-03-12T11:24:13.301Z,4.00
2018-03-12T11:26:39.783Z,4.00
2018-03-12T11:29:06.215Z,2.47
2018-03-12T11:31:32.713Z,2.40
2018-03-12T11:33:59.892Z,5.07
2018-03-12T11:36:26.389Z,1.97
2018-03-12T11:38:52.792Z,3.03
2018-03-12T11:41:19.206Z,4.30
2018-03-12T11:43:45.672Z,4.23
2018-03-12T11:46:12.150Z,3.10
2018-03-12T11:48:38.693Z,5.40
2018-03-12T11:51:05.080Z,5.77
2018-03-12T11:53:31.540Z,6.53
2018-03-12T11:55:57.916Z,2.60
2018-03-12T11:58:26.012Z,1.73
2018-03-12T12:00:53.148Z,2.20
2018-03-12T12:03:19.584Z,2.80
2018-03-12T12:05:46.062Z,3.30
2018-03-12T12:08:13.192Z,2.93
2018-03-12T12:10:39.659Z,6.70
2018-03-12T12:13:06.787Z,1.30
2018-03-12T12:15:33.168Z,1.53
2018-03-12T12:17:59.604Z,2.23
2018-03-12T12:20:26.043Z,5.90
2018-03-12T12:22:52.436Z,4.83
2018-03-12T12:25:18.824Z,3.20
2018-03-12T12:27:45.200Z,3.80
2018-03-12T12:30:11.640Z,6.43
2018-03-12T12:32:38.870Z,4.80
2018-03-12T12:35:05.317Z,4.53
2018-03-12T12:37:31.769Z,9.00
2018-03-12T12:39:59.152Z,1.43
2018-03-12T12:42:25.552Z,1.43
2018-03-12T12:44:51.937Z,1.63
2018-03-12T12:47:18.367Z,3.63
2018-03-12T12:49:44.777Z,2.57
2018-03-12T12:52:11.192Z,2.40
2018-03-12T12:54:37.620Z,1.53
2018-03-12T12:57:04.028Z,4.20
2018-03-12T12:59:30.397Z,4.30
2018-03-12T13:01:56.812Z,1.53
2018-03-12T13:04:23.264Z,5.17
2018-03-12T13:06:49.630Z,2.67
2018-03-12T13:09:17.332Z,4.40
2018-03-12T13:11:43.760Z,1.70
2018-03-12T13:17:08.373Z,2.30
2018-03-12T13:19:34.883Z,2.20
2018-03-12T13:22:01.401Z,1.77
2018-03-12T13:24:27.834Z,1.73
2018-03-12T13:26:54.412Z,2.33
2018-03-12T13:29:20.863Z,3.47
2018-03-12T13:31:47.238Z,1.30
2018-03-12T13:34:13.632Z,2.50
2018-03-12T13:36:40.750Z,2.97
2018-03-12T13:39:07.188Z,6.33
2018-03-12T13:41:33.607Z,2.30
2018-03-12T13:43:59.998Z,3.60
2018-03-12T13:46:26.515Z,2.00
2018-03-12T13:48:53.800Z,4.10
2018-03-12T13:51:20.189Z,2.70
2018-03-12T13:53:46.555Z,2.20
2018-03-12T13:56:12.987Z,1.87
2018-03-12T13:58:40.378Z,2.07
2018-03-12T14:01:06.888Z,3.57
2018-03-12T14:03:33.245Z,3.03
2018-03-12T14:05:59.653Z,3.23
2018-03-12T14:08:26.096Z,1.20
2018-03-12T14:10:52.520Z,4.30
2018-03-12T14:13:19.708Z,3.17
2018-03-12T14:15:46.104Z,1.97
2018-03-12T14:18:12.565Z,5.00
2018-03-12T14:20:39.787Z,0.90
2018-03-12T14:23:06.225Z,1.47
2018-03-12T14:25:32.634Z,4.30
2018-03-12T14:27:59.799Z,6.90
2018-03-12T14:30:26.195Z,1.23
2018-03-12T14:32:53.564Z,1.13
2018-03-12T14:35:19.938Z,2.53
2018-03-12T14:37:47.122Z,3.43
2018-03-12T14:40:14.241Z,1.87
2018-03-12T14:42:40.709Z,3.23
2018-03-12T14:45:07.075Z,1.07
2018-03-12T14:47:33.469Z,1.33
2018-03-12T14:49:59.856Z,2.60
2018-03-12T14:52:26.259Z,2.60
2018-03-12T14:54:52.670Z,2.10
2018-03-12T14:57:19.812Z,1.80
2018-03-12T14:59:46.267Z,1.63
2018-03-12T15:02:12.629Z,0.70
2018-03-12T15:04:39.024Z,2.50
2018-03-12T15:07:05.466Z,1.43
2018-03-12T15:09:31.884Z,2.87
2018-03-12T15:11:58.308Z,0.60
2018-03-12T15:14:26.426Z,0.60
2018-03-12T15:16:52.860Z,1.00
2018-03-12T15:19:20.084Z,3.47
2018-03-12T15:21:46.516Z,1.53
2018-03-12T15:24:13.008Z,1.20
2018-03-12T15:26:40.112Z,1.40
2018-03-12T15:29:06.532Z,1.00
2018-03-12T15:31:33.637Z,1.53
2018-03-12T15:34:00.030Z,3.57
2018-03-12T15:36:27.168Z,2.20
2018-03-12T15:38:53.625Z,1.57
2018-03-12T15:41:20.084Z,1.07
2018-03-12T15:43:46.481Z,4.53
2018-03-12T15:46:13.660Z,1.87
2018-03-12T15:48:41.500Z,2.93
2018-03-12T15:51:07.900Z,3.07
2018-03-12T15:53:34.286Z,4.40
2018-03-12T15:56:00.696Z,3.87
2018-03-12T15:58:27.852Z,1.50
2018-03-12T16:00:55.002Z,2.83
2018-03-12T16:03:21.366Z,2.20
2018-03-12T16:05:47.789Z,1.70
2018-03-12T16:08:14.202Z,1.03
2018-03-12T16:10:40.601Z,2.20
2018-03-12T16:13:07.019Z,4.37
2018-03-12T16:15:35.172Z,2.20
2018-03-12T16:18:01.571Z,1.53
2018-03-12T16:20:27.992Z,1.83
2018-03-12T16:22:54.400Z,0.70
2018-03-12T16:25:20.816Z,8.03
2018-03-12T16:27:47.220Z,0.90
2018-03-12T16:30:13.616Z,2.60
2018-03-12T16:32:41.031Z,0.70
2018-03-12T16:35:07.454Z,2.43
2018-03-12T16:37:33.903Z,3.13
2018-03-12T16:40:00.339Z,0.70
2018-03-12T16:42:26.750Z,2.53
2018-03-12T16:44:54.188Z,0.80
2018-03-12T16:47:20.620Z,3.53
2018-03-12T16:49:46.989Z,1.83
2018-03-12T16:52:13.384Z,0.90
2018-03-12T16:54:41.552Z,2.20
2018-03-12T16:57:06.260Z,0.60
2018-03-12T16:59:32.631Z,1.33
2018-03-12T17:01:59.183Z,0.70
2018-03-12T17:04:25.563Z,0.70
2018-03-12T17:06:51.972Z,1.10
2018-03-12T17:09:18.363Z,1.17
2018-03-12T17:11:44.765Z,1.67
2018-03-12T17:14:11.176Z,1.47
2018-03-12T17:16:38.614Z,0.60
2018-03-12T17:19:05.023Z,3.17
2018-03-12T17:21:31.455Z,5.70
2018-03-12T17:24:00.300Z,0.93
2018-03-12T17:26:26.689Z,4.03
2018-03-12T17:28:53.170Z,3.10
2018-03-12T17:31:19.548Z,1.97
2018-03-12T17:33:45.932Z,6.70
2018-03-12T17:36:13.058Z,9.80
2018-03-12T17:38:39.488Z,4.83
2018-03-12T17:41:06.708Z,5.60
2018-03-12T17:43:33.845Z,3.00
2018-03-12T17:46:01.761Z,2.90
2018-03-12T17:48:28.924Z,2.10
2018-03-12T17:50:55.356Z,3.27
2018-03-12T17:53:23.867Z,2.20
2018-03-12T17:55:50.251Z,8.40
2018-03-12T17:58:16.620Z,2.17
2018-03-12T18:00:42.974Z,7.73
2018-03-12T18:03:09.386Z,5.17
2018-03-12T18:05:35.752Z,6.50
2018-03-12T18:08:02.691Z,2.90
2018-03-12T18:10:29.076Z,6.03
2018-03-12T18:12:55.483Z,8.03
2018-03-12T18:15:21.886Z,4.80
2018-03-12T18:17:48.268Z,3.77
2018-03-12T18:20:14.621Z,1.00
2018-03-12T18:22:41.096Z,1.00
2018-03-12T18:25:07.504Z,2.37
2018-03-12T18:27:33.876Z,2.30
2018-03-12T18:30:00.296Z,1.53
2018-03-12T18:32:26.664Z,4.50
2018-03-12T18:34:53.115Z,3.93
2018-03-12T18:37:20.279Z,1.23
2018-03-12T18:39:47.400Z,1.70
2018-03-12T18:42:13.772Z,1.33
2018-03-12T18:44:40.160Z,2.77
2018-03-12T18:47:06.556Z,1.83
2018-03-12T18:49:33.664Z,5.03
2018-03-12T18:51:59.992Z,1.23
2018-03-12T18:54:26.444Z,5.37
2018-03-12T18:56:52.809Z,2.63
2018-03-12T18:59:19.162Z,3.80
2018-03-12T19:01:45.551Z,2.87
2018-03-12T19:04:12.008Z,3.17
2018-03-12T19:06:39.071Z,1.37
2018-03-12T19:09:05.464Z,4.50
2018-03-12T19:11:33.342Z,2.17
2018-03-12T19:14:00.473Z,2.07
2018-03-12T19:16:26.979Z,6.20
2018-03-12T19:18:53.342Z,3.03
2018-03-12T19:21:19.729Z,3.73
2018-03-12T19:23:46.124Z,2.97
2018-03-12T19:26:12.509Z,1.70
2018-03-12T19:28:38.852Z,2.93
2018-03-12T19:31:05.308Z,1.27
2018-03-12T19:33:32.432Z,2.03
2018-03-12T19:35:59.528Z,2.47
2018-03-12T19:38:25.893Z,1.80
2018-03-12T19:40:52.236Z,3.30
2018-03-12T19:43:18.601Z,3.40
2018-03-12T19:45:44.989Z,3.00
2018-03-12T19:48:11.359Z,2.70
2018-03-12T19:50:37.724Z,3.90
2018-03-12T19:53:11.273Z,3.80
2018-03-12T19:55:37.694Z,1.73
2018-03-12T19:58:04.844Z,2.57
2018-03-12T20:00:31.357Z,3.77
2018-03-12T20:02:57.754Z,2.00
2018-03-12T20:05:24.902Z,2.13
2018-03-12T20:07:52.120Z,13.43
2018-03-12T20:10:25.928Z,5.80
2018-03-12T20:12:58.011Z,4.10
2018-03-12T20:15:31.386Z,2.80
2018-03-12T20:17:58.504Z,2.23
2018-03-12T20:20:24.831Z,2.20
2018-03-12T20:22:51.251Z,5.63
2018-03-12T20:25:17.580Z,1.83
2018-03-12T20:27:44.000Z,2.20
2018-03-12T20:30:10.443Z,3.67
2018-03-12T20:32:37.638Z,3.10
2018-03-12T20:35:05.335Z,2.43
2018-03-12T20:37:31.727Z,1.27
2018-03-12T20:39:58.177Z,1.30
2018-03-12T20:42:24.665Z,1.90
2018-03-12T20:44:51.008Z,5.40
2018-03-12T20:47:18.144Z,1.90
2018-03-12T20:49:45.272Z,1.70
2018-03-12T20:52:11.664Z,2.00
2018-03-12T20:54:38.023Z,5.87
2018-03-12T20:57:04.421Z,1.70
2018-03-12T20:59:31.058Z,2.07
2018-03-12T21:01:58.178Z,2.23
2018-03-12T21:04:24.517Z,4.43
2018-03-12T21:06:50.882Z,5.63
2018-03-12T21:09:17.236Z,2.70
2018-03-12T21:11:43.619Z,3.20
2018-03-12T21:14:10.025Z,1.93
2018-03-12T21:16:36.384Z,1.80
2018-03-12T21:19:02.787Z,6.73
2018-03-12T21:21:29.114Z,4.77
2018-03-12T21:23:55.636Z,2.40
2018-03-12T21:26:22.011Z,3.00
2018-03-12T21:28:48.386Z,1.93
2018-03-12T21:31:15.487Z,5.73
2018-03-12T21:33:41.835Z,4.13
2018-03-12T21:36:08.216Z,3.60
2018-03-12T21:38:34.568Z,3.87
2018-03-12T21:41:02.416Z,2.17
2018-03-12T21:43:28.811Z,2.60
2018-03-12T21:45:55.144Z,2.53
2018-03-12T21:48:21.649Z,4.00
2018-03-12T21:50:48.019Z,2.93
2018-03-12T21:53:14.375Z,3.47
2018-03-12T21:55:40.825Z,3.00
2018-03-12T21:58:08.004Z,2.70
2018-03-12T22:00:34.376Z,2.47
2018-03-12T22:03:00.809Z,3.60
2018-03-12T22:05:27.215Z,4.10
2018-03-12T22:07:53.562Z,3.80
2018-03-12T22:10:20.240Z,4.77
2018-03-12T22:12:46.695Z,3.87
2018-03-12T22:15:13.035Z,3.70
2018-03-12T22:17:39.395Z,3.97
2018-03-12T22:20:06.727Z,9.20
2018-03-12T22:22:33.832Z,3.73
2018-03-12T22:25:00.244Z,3.93
2018-03-12T22:27:26.661Z,13.50
2018-03-12T22:29:53.784Z,4.23
2018-03-12T22:32:20.148Z,4.50
2018-03-12T22:34:46.519Z,6.10
2018-03-12T22:37:13.586Z,4.73
2018-03-12T22:39:39.984Z,4.53
2018-03-12T22:42:06.365Z,5.40
2018-03-12T22:44:33.472Z,4.43
2018-03-12T22:46:59.812Z,7.53
2018-03-12T22:49:26.202Z,5.40
2018-03-12T22:51:53.290Z,7.80
2018-03-12T22:54:19.661Z,6.47
2018-03-12T22:56:46.048Z,7.73
2018-03-12T22:59:12.376Z,5.93
2018-03-12T23:01:38.758Z,5.73
2018-03-12T23:04:05.124Z,6.70
2018-03-12T23:06:31.526Z,5.10
2018-03-12T23:08:58.612Z,6.63
2018-03-12T23:11:24.960Z,5.60
2018-03-12T23:13:51.304Z,6.73
2018-03-12T23:16:17.683Z,8.33
2018-03-12T23:18:43.999Z,3.97
2018-03-12T23:21:10.367Z,5.30
2018-03-12T23:23:36.728Z,5.47
2018-03-12T23:26:03.293Z,5.50
2018-03-12T23:28:29.604Z,4.10
2018-03-12T23:30:55.976Z,4.40
2018-03-12T23:33:23.048Z,3.57
2018-03-12T23:35:49.376Z,4.00
2018-03-12T23:38:16.465Z,4.10
2018-03-12T23:40:43.576Z,4.40
2018-03-12T23:43:09.976Z,8.93
2018-03-12T23:45:37.400Z,6.97
2018-03-12T23:48:03.740Z,3.33
2018-03-12T23:50:30.042Z,4.40
2018-03-12T23:52:56.428Z,6.10
2018-03-12T23:55:22.760Z,3.50
2018-03-12T23:57:49.128Z,3.60
